createdAt,value
2022-08-16T00:01:16.424Z,11.50
2022-08-16T00:03:43.829Z,11.80
2022-08-16T00:06:11.006Z,12.95
2022-08-16T00:08:42.432Z,12.55
2022-08-16T00:11:15.472Z,13.23
2022-08-16T00:13:53.887Z,12.07
2022-08-16T00:17:06.336Z,12.95
2022-08-16T00:19:22.555Z,12.13
2022-08-16T00:21:53.259Z,12.60
2022-08-16T00:24:30.973Z,12.75
2022-08-16T00:27:00.177Z,12.83
2022-08-16T00:29:29.498Z,12.57
2022-08-16T00:31:59.995Z,12.35
2022-08-16T00:34:41.388Z,13.00
2022-08-16T00:37:16.757Z,12.52
2022-08-16T00:39:45.288Z,12.07
2022-08-16T00:42:30.734Z,13.73
2022-08-16T00:45:25.019Z,12.63
2022-08-16T00:47:53.401Z,13.52
2022-08-16T00:50:36.475Z,13.90
2022-08-16T00:53:06.901Z,14.07
2022-08-16T00:55:38.775Z,14.18
2022-08-16T00:58:13.040Z,13.75
2022-08-16T01:00:54.116Z,14.38
2022-08-16T01:03:29.973Z,13.93
2022-08-16T01:05:57.975Z,13.30
2022-08-16T01:08:35.433Z,15.27
2022-08-16T01:11:05.212Z,13.40
2022-08-16T01:13:36.742Z,13.68
2022-08-16T01:16:26.132Z,13.35
2022-08-16T01:19:02.726Z,13.40
2022-08-16T01:21:41.603Z,14.05
2022-08-16T01:24:52.920Z,13.52
2022-08-16T01:27:29.676Z,14.60
2022-08-16T01:30:20.598Z,14.98
2022-08-16T01:33:01.360Z,14.33
2022-08-16T01:35:40.138Z,14.43
2022-08-16T01:38:25.541Z,14.00
2022-08-16T01:40:58.122Z,14.45
2022-08-16T01:43:29.205Z,14.60
2022-08-16T01:46:29.589Z,14.80
2022-08-16T01:48:53.291Z,14.25
2022-08-16T01:51:22.717Z,14.27
2022-08-16T01:53:54.585Z,14.88
2022-08-16T01:56:25.484Z,14.38
2022-08-16T01:58:55.297Z,15.17
2022-08-16T02:01:23.031Z,14.27
2022-08-16T02:03:53.109Z,15.05
2022-08-16T02:06:34.422Z,15.18
2022-08-16T02:09:05.359Z,14.77
2022-08-16T02:11:47.522Z,14.33
2022-08-16T02:14:18.257Z,14.52
2022-08-16T02:16:45.833Z,14.32
2022-08-16T02:19:16.486Z,13.77
2022-08-16T02:22:09.078Z,14.38
2022-08-16T02:24:41.313Z,15.10
2022-08-16T02:27:10.430Z,15.70
2022-08-16T02:29:41.496Z,16.17
2022-08-16T02:32:50.536Z,15.38
2022-08-16T02:35:00.624Z,15.57
2022-08-16T02:37:51.557Z,17.13
2022-08-16T02:40:18.063Z,16.67
2022-08-16T02:42:49.551Z,16.35
2022-08-16T02:45:19.528Z,16.08
2022-08-16T02:48:00.373Z,15.70
2022-08-16T02:50:54.663Z,16.13
2022-08-16T02:53:18.208Z,15.50
2022-08-16T02:55:50.835Z,14.88
2022-08-16T02:58:19.420Z,16.80
2022-08-16T03:00:52.553Z,16.48
2022-08-16T03:03:19.664Z,17.30
2022-08-16T03:05:49.975Z,17.85
2022-08-16T03:08:50.715Z,17.52
2022-08-16T03:11:16.575Z,17.33
2022-08-16T03:13:53.196Z,16.95
2022-08-16T03:16:36.541Z,17.87
2022-08-16T03:19:08.232Z,17.90
2022-08-16T03:21:37.784Z,18.35
2022-08-16T03:24:28.690Z,18.67
2022-08-16T03:26:58.080Z,17.63
2022-08-16T03:29:29.970Z,17.23
2022-08-16T03:31:59.449Z,17.30
2022-08-16T03:34:27.671Z,17.55
2022-08-16T03:36:55.304Z,16.50
2022-08-16T03:39:23.261Z,17.23
2022-08-16T03:41:51.365Z,16.30
2022-08-16T03:44:44.325Z,16.23
2022-08-16T03:47:18.669Z,16.58
2022-08-16T03:49:51.332Z,16.40
2022-08-16T03:52:20.029Z,15.40
2022-08-16T03:54:57.635Z,16.23
2022-08-16T03:57:31.922Z,16.30
2022-08-16T04:00:20.767Z,15.82
2022-08-16T04:03:09.058Z,15.73
2022-08-16T04:05:44.360Z,16.33
2022-08-16T04:08:23.111Z,15.83
2022-08-16T04:10:53.208Z,16.77
2022-08-16T04:13:59.019Z,15.63
2022-08-16T04:16:26.584Z,15.57
2022-08-16T04:19:02.349Z,14.93
2022-08-16T04:21:33.712Z,16.30
2022-08-16T04:24:02.832Z,17.05
2022-08-16T04:26:32.345Z,15.85
2022-08-16T04:29:16.222Z,17.75
2022-08-16T04:31:46.604Z,16.30
2022-08-16T04:34:26.555Z,16.43
2022-08-16T04:36:54.504Z,16.90
2022-08-16T04:39:24.005Z,17.35
2022-08-16T04:41:57.112Z,17.20
2022-08-16T04:44:52.622Z,17.65
2022-08-16T04:47:21.810Z,17.60
2022-08-16T04:49:52.669Z,18.08
2022-08-16T04:52:33.960Z,18.27
2022-08-16T04:55:11.944Z,18.15
2022-08-16T04:57:41.362Z,17.83
2022-08-16T05:00:31.041Z,17.70
2022-08-16T05:03:08.702Z,17.40
2022-08-16T05:05:45.217Z,18.83
2022-08-16T05:08:29.329Z,18.33
2022-08-16T05:11:05.302Z,17.75
2022-08-16T05:13:41.092Z,17.33
2022-08-16T05:16:24.608Z,17.05
2022-08-16T05:18:56.899Z,17.63
2022-08-16T05:21:28.310Z,18.27
2022-08-16T05:24:03.375Z,17.83
2022-08-16T05:26:36.021Z,18.20
2022-08-16T05:29:06.662Z,18.30
2022-08-16T05:31:38.191Z,18.35
2022-08-16T05:34:19.649Z,18.58
2022-08-16T05:36:51.261Z,20.23
2022-08-16T05:39:20.672Z,18.37
2022-08-16T05:41:49.082Z,17.98
2022-08-16T05:44:24.134Z,19.60
2022-08-16T05:46:55.865Z,19.73
2022-08-16T05:49:24.313Z,19.13
2022-08-16T05:51:54.720Z,17.97
2022-08-16T05:54:24.997Z,19.60
2022-08-16T05:56:55.810Z,18.55
2022-08-16T05:59:24.196Z,17.85
2022-08-16T06:01:52.235Z,18.90
2022-08-16T06:04:35.259Z,18.60
2022-08-16T06:07:08.256Z,19.83
2022-08-16T06:09:44.421Z,20.02
2022-08-16T06:12:26.889Z,20.17
2022-08-16T06:14:58.719Z,20.17
2022-08-16T06:17:41.739Z,20.10
2022-08-16T06:20:15.776Z,19.70
2022-08-16T06:22:47.613Z,21.00
2022-08-16T06:25:35.574Z,21.35
2022-08-16T06:28:10.185Z,20.52
2022-08-16T06:30:43.290Z,19.90
2022-08-16T06:33:12.939Z,20.67
2022-08-16T06:35:47.122Z,21.52
2022-08-16T06:38:32.728Z,20.15
2022-08-16T06:41:04.169Z,20.40
2022-08-16T06:43:32.288Z,20.40
2022-08-16T06:46:00.524Z,22.25
2022-08-16T06:48:33.021Z,21.05
2022-08-16T06:51:04.275Z,21.50
2022-08-16T06:53:34.817Z,21.50
2022-08-16T06:56:14.878Z,21.60
2022-08-16T06:58:52.055Z,21.27
2022-08-16T07:01:34.422Z,20.90
2022-08-16T07:04:12.166Z,20.15
2022-08-16T07:06:43.119Z,20.25
2022-08-16T07:09:12.622Z,19.77
2022-08-16T07:11:48.071Z,18.83
2022-08-16T07:14:24.375Z,16.67
2022-08-16T07:16:55.744Z,17.73
2022-08-16T07:19:33.724Z,16.63
2022-08-16T07:22:36.596Z,16.03
2022-08-16T07:25:01.256Z,16.70
2022-08-16T07:27:29.151Z,17.70
2022-08-16T07:30:00.548Z,16.70
2022-08-16T07:32:29.479Z,15.77
2022-08-16T07:34:56.847Z,16.57
2022-08-16T07:37:25.138Z,15.38
2022-08-16T07:39:54.804Z,15.25
2022-08-16T07:42:28.546Z,14.88
2022-08-16T07:45:07.533Z,14.93
2022-08-16T07:47:37.228Z,14.10
2022-08-16T07:50:07.449Z,14.25
2022-08-16T07:52:38.734Z,14.55
2022-08-16T07:55:08.521Z,15.05
2022-08-16T07:57:44.335Z,15.48
2022-08-16T08:00:25.258Z,14.77
2022-08-16T08:02:55.443Z,13.98
2022-08-16T08:05:35.803Z,15.55
2022-08-16T08:08:11.977Z,16.55
2022-08-16T08:10:52.148Z,15.07
2022-08-16T08:13:19.163Z,14.60
2022-08-16T08:15:53.131Z,12.82
2022-08-16T08:18:30.084Z,13.48
2022-08-16T08:20:59.843Z,13.02
2022-08-16T08:23:28.180Z,14.25
2022-08-16T08:25:56.005Z,13.80
2022-08-16T08:28:23.634Z,16.52
2022-08-16T08:31:01.615Z,15.43
2022-08-16T08:33:31.729Z,15.05
2022-08-16T08:36:05.528Z,14.18
2022-08-16T08:38:43.916Z,13.43
2022-08-16T08:41:13.285Z,13.50
2022-08-16T08:43:41.938Z,14.13
2022-08-16T08:46:21.432Z,12.43
2022-08-16T08:48:59.686Z,12.07
2022-08-16T08:51:35.575Z,12.47
2022-08-16T08:54:06.810Z,12.68
2022-08-16T08:56:37.196Z,12.40
2022-08-16T08:59:13.168Z,13.25
2022-08-16T09:01:56.557Z,13.15
2022-08-16T09:04:27.205Z,12.53
2022-08-16T09:06:55.491Z,14.45
2022-08-16T09:09:23.775Z,13.80
2022-08-16T09:12:04.156Z,13.30
2022-08-16T09:14:35.832Z,12.90
2022-08-16T09:17:11.584Z,12.70
2022-08-16T09:19:52.716Z,15.15
2022-08-16T09:22:24.184Z,13.88
2022-08-16T09:24:53.858Z,12.75
2022-08-16T09:27:26.583Z,13.80
2022-08-16T09:29:59.747Z,10.97
2022-08-16T09:32:30.448Z,12.93
2022-08-16T09:34:59.957Z,13.00
2022-08-16T09:37:36.751Z,11.30
2022-08-16T09:40:32.260Z,11.98
2022-08-16T09:42:59.227Z,10.67
2022-08-16T09:45:28.923Z,11.70
2022-08-16T09:47:58.527Z,13.38
2022-08-16T09:50:33.266Z,12.27
2022-08-16T09:53:15.115Z,12.75
2022-08-16T09:55:49.529Z,13.23
2022-08-16T09:58:41.368Z,10.57
2022-08-16T10:01:11.128Z,11.63
2022-08-16T10:03:39.008Z,11.98
2022-08-16T10:06:27.521Z,10.30
2022-08-16T10:09:15.136Z,9.57
2022-08-16T10:12:11.802Z,9.48
2022-08-16T10:14:46.569Z,7.70
2022-08-16T10:17:13.774Z,10.35
2022-08-16T10:19:43.251Z,9.55
2022-08-16T10:22:12.565Z,10.47
2022-08-16T10:24:56.141Z,10.40
2022-08-16T10:27:45.692Z,9.82
2022-08-16T10:30:25.557Z,11.52
2022-08-16T10:32:55.185Z,10.25
2022-08-16T10:35:22.749Z,9.13
2022-08-16T10:37:52.262Z,10.70
2022-08-16T10:40:29.544Z,11.13
2022-08-16T10:43:01.057Z,10.07
2022-08-16T10:45:36.932Z,8.95
2022-08-16T10:48:27.913Z,10.83
2022-08-16T10:50:58.468Z,11.38
2022-08-16T10:53:32.336Z,11.52
2022-08-16T10:56:06.384Z,11.23
2022-08-16T10:58:53.191Z,12.57
2022-08-16T11:01:40.017Z,13.50
2022-08-16T11:05:04.916Z,13.55
2022-08-16T11:09:43.746Z,12.43
2022-08-16T11:12:13.578Z,12.27
2022-08-16T11:15:11.316Z,13.70
2022-08-16T11:17:29.007Z,12.50
2022-08-16T11:20:36.699Z,11.20
2022-08-16T11:22:49.288Z,11.63
2022-08-16T11:28:12.332Z,15.23
2022-08-16T11:30:59.759Z,14.02
2022-08-16T11:36:22.477Z,13.40
2022-08-16T11:38:57.587Z,14.05
2022-08-16T11:41:26.573Z,13.93
2022-08-16T11:43:57.996Z,12.80
2022-08-16T11:46:44.300Z,12.73
2022-08-16T11:49:13.898Z,15.30
2022-08-16T11:51:45.351Z,15.85
2022-08-16T11:54:20.907Z,14.80
2022-08-16T11:56:52.731Z,15.00
2022-08-16T11:59:25.404Z,15.45
2022-08-16T12:02:30.758Z,14.43
2022-08-16T12:04:51.732Z,13.60
2022-08-16T12:07:21.096Z,12.53
2022-08-16T12:09:53.166Z,13.45
2022-08-16T12:12:23.485Z,11.52
2022-08-16T12:15:00.063Z,12.43
2022-08-16T12:17:31.596Z,13.73
2022-08-16T12:20:00.702Z,11.90
2022-08-16T12:22:29.033Z,10.43
2022-08-16T12:24:56.375Z,10.38
2022-08-16T12:27:25.379Z,12.80
2022-08-16T12:29:58.679Z,11.10
2022-08-16T12:32:38.337Z,10.97
2022-08-16T12:35:11.994Z,9.77
2022-08-16T12:37:41.640Z,9.98
2022-08-16T12:40:22.446Z,8.48
2022-08-16T12:42:58.938Z,10.88
2022-08-16T12:45:31.388Z,9.93
2022-08-16T12:48:34.580Z,11.80
2022-08-16T12:51:20.055Z,14.55
2022-08-16T12:53:54.558Z,14.05
2022-08-16T12:56:31.100Z,14.27
2022-08-16T12:59:01.617Z,13.77
2022-08-16T13:01:33.324Z,13.23
2022-08-16T13:04:20.291Z,13.07
2022-08-16T13:06:52.044Z,17.45
2022-08-16T13:09:23.401Z,14.65
2022-08-16T13:12:09.745Z,13.73
2022-08-16T13:14:41.700Z,16.75
2022-08-16T13:17:18.825Z,15.80
2022-08-16T13:25:10.387Z,17.07
2022-08-16T13:28:15.074Z,16.00
2022-08-16T13:30:36.262Z,18.23
2022-08-16T13:33:12.411Z,22.52
2022-08-16T13:35:45.916Z,21.27
2022-08-16T13:38:24.836Z,17.70
2022-08-16T13:40:56.555Z,20.30
2022-08-16T13:43:32.507Z,17.40
2022-08-16T13:46:04.347Z,15.23
2022-08-16T13:48:42.567Z,15.23
2022-08-16T13:51:18.899Z,15.00
2022-08-16T13:53:59.048Z,14.15
2022-08-16T13:56:36.984Z,15.85
2022-08-16T13:59:14.001Z,16.05
2022-08-16T14:01:47.435Z,12.00
2022-08-16T14:04:32.452Z,12.63
2022-08-16T14:07:02.409Z,14.02
2022-08-16T14:09:32.222Z,13.18
2022-08-16T14:12:09.555Z,11.98
2022-08-16T14:14:37.003Z,11.80
2022-08-16T14:17:04.543Z,11.93
2022-08-16T14:19:31.548Z,9.82
2022-08-16T14:22:13.655Z,9.52
2022-08-16T14:24:45.341Z,9.13
2022-08-16T14:27:17.009Z,10.55
2022-08-16T14:29:49.444Z,10.03
2022-08-16T14:32:33.068Z,10.75
2022-08-16T14:35:11.421Z,10.38
2022-08-16T14:37:39.909Z,10.68
2022-08-16T14:40:14.293Z,12.32
2022-08-16T14:42:44.034Z,11.87
2022-08-16T14:45:16.313Z,10.43
2022-08-16T14:47:44.239Z,11.00
2022-08-16T14:50:16.176Z,10.85
2022-08-16T14:52:56.228Z,10.45
2022-08-16T14:55:26.045Z,10.70
2022-08-16T14:57:54.458Z,12.02
2022-08-16T15:00:33.242Z,11.82
2022-08-16T15:03:06.440Z,12.68
2022-08-16T15:05:40.257Z,13.98
2022-08-16T15:08:08.666Z,12.33
2022-08-16T15:10:37.314Z,10.55
2022-08-16T15:13:09.670Z,13.18
2022-08-16T15:15:38.557Z,10.98
2022-08-16T15:18:10.014Z,11.30
2022-08-16T15:20:41.291Z,13.07
2022-08-16T15:23:09.937Z,14.90
2022-08-16T15:25:53.445Z,13.15
2022-08-16T15:28:31.527Z,14.93
2022-08-16T15:31:03.867Z,15.75
2022-08-16T15:33:35.833Z,13.13
2022-08-16T15:36:13.789Z,12.57
2022-08-16T15:38:56.272Z,13.60
2022-08-16T15:41:42.605Z,14.88
2022-08-16T15:44:24.555Z,12.85
2022-08-16T15:46:58.811Z,12.23
2022-08-16T15:49:37.761Z,14.40
2022-08-16T15:52:29.411Z,12.57
2022-08-16T15:54:59.351Z,12.63
2022-08-16T15:57:30.237Z,10.93
2022-08-16T16:00:14.849Z,10.03
2022-08-16T16:02:43.902Z,11.23
2022-08-16T16:05:11.205Z,12.98
2022-08-16T16:07:55.771Z,11.85
2022-08-16T16:10:23.162Z,16.88
2022-08-16T16:13:00.173Z,17.80
2022-08-16T16:15:36.347Z,16.05
2022-08-16T16:18:05.236Z,16.98
2022-08-16T16:20:47.345Z,17.20
2022-08-16T16:23:21.544Z,16.60
2022-08-16T16:25:52.144Z,19.43
2022-08-16T16:29:05.105Z,17.20
2022-08-16T16:31:14.332Z,19.33
2022-08-16T16:33:47.515Z,18.85
2022-08-16T16:36:22.244Z,16.67
2022-08-16T16:38:53.138Z,17.33
2022-08-16T16:41:25.318Z,17.35
2022-08-16T16:43:55.667Z,17.58
2022-08-16T16:46:41.402Z,18.38
2022-08-16T16:49:13.880Z,19.83
2022-08-16T16:51:44.577Z,20.37
2022-08-16T16:54:12.921Z,19.38
2022-08-16T16:56:40.383Z,17.40
2022-08-16T16:59:18.163Z,17.98
2022-08-16T17:01:59.385Z,17.67
2022-08-16T17:04:31.743Z,14.50
2022-08-16T17:07:01.445Z,18.33
2022-08-16T17:09:28.719Z,18.45
2022-08-16T17:11:56.750Z,16.92
2022-08-16T17:14:33.477Z,15.45
2022-08-16T17:17:11.533Z,17.93
2022-08-16T17:19:41.805Z,18.40
2022-08-16T17:22:16.473Z,16.35
2022-08-16T17:24:52.501Z,16.90
2022-08-16T17:27:33.421Z,14.82
2022-08-16T17:30:14.901Z,16.83
2022-08-16T17:32:54.477Z,16.02
2022-08-16T17:35:34.341Z,15.07
2022-08-16T17:38:04.808Z,15.93
2022-08-16T17:40:45.865Z,13.32
2022-08-16T17:43:32.124Z,15.57
2022-08-16T17:46:00.517Z,14.43
2022-08-16T17:48:28.316Z,16.45
2022-08-16T17:50:55.340Z,13.88
2022-08-16T17:53:23.091Z,14.85
2022-08-16T17:55:51.231Z,13.77
2022-08-16T17:58:23.467Z,16.48
2022-08-16T18:00:59.563Z,14.45
2022-08-16T18:04:09.125Z,13.65
2022-08-16T18:06:24.060Z,12.70
2022-08-16T18:08:57.815Z,14.73
2022-08-16T18:11:30.064Z,15.20
2022-08-16T18:13:59.933Z,17.25
2022-08-16T18:16:26.918Z,15.57
2022-08-16T18:18:53.960Z,16.88
2022-08-16T18:21:39.623Z,17.00
2022-08-16T18:24:06.824Z,18.02
2022-08-16T18:26:33.971Z,20.08
2022-08-16T18:29:00.888Z,17.65
2022-08-16T18:31:28.004Z,17.75
2022-08-16T18:33:56.009Z,16.83
2022-08-16T18:36:24.758Z,17.65
2022-08-16T18:38:53.115Z,17.95
2022-08-16T18:41:23.014Z,16.13
2022-08-16T18:44:23.136Z,15.45
2022-08-16T18:46:42.645Z,17.23
2022-08-16T18:49:11.409Z,17.75
2022-08-16T18:51:42.465Z,17.15
2022-08-16T18:54:20.438Z,17.38
2022-08-16T18:56:55.163Z,16.45
2022-08-16T18:59:26.869Z,18.13
2022-08-16T19:01:59.829Z,16.75
2022-08-16T19:04:55.673Z,15.30
2022-08-16T19:07:18.678Z,18.05
2022-08-16T19:09:45.765Z,19.30
2022-08-16T19:12:15.984Z,19.03
2022-08-16T19:14:45.241Z,20.80
2022-08-16T19:17:12.250Z,18.73
2022-08-16T19:19:39.201Z,20.60
2022-08-16T19:22:06.492Z,20.40
2022-08-16T19:24:33.557Z,19.60
2022-08-16T19:27:01.715Z,20.27
2022-08-16T19:29:29.123Z,23.73
2022-08-16T19:31:56.116Z,25.83
2022-08-16T19:34:23.053Z,24.27
2022-08-16T19:36:49.962Z,24.70
2022-08-16T19:39:18.092Z,28.92
2022-08-16T19:41:53.666Z,28.67
2022-08-16T19:44:22.815Z,30.55
2022-08-16T19:46:50.528Z,30.88
2022-08-16T19:49:17.764Z,29.70
2022-08-16T19:51:49.540Z,33.05
2022-08-16T19:54:17.435Z,32.88
2022-08-16T19:56:44.634Z,32.67
2022-08-16T19:59:20.901Z,33.33
2022-08-16T20:01:50.946Z,31.20
2022-08-16T20:04:18.478Z,33.45
2022-08-16T20:06:45.491Z,31.13
2022-08-16T20:09:15.206Z,31.33
2022-08-16T20:11:48.565Z,32.65
2022-08-16T20:14:25.141Z,31.57
2022-08-16T20:16:59.016Z,29.85
2022-08-16T20:19:29.140Z,28.73
2022-08-16T20:22:00.024Z,29.17
2022-08-16T20:24:34.644Z,28.42
2022-08-16T20:27:08.579Z,27.90
2022-08-16T20:29:38.741Z,27.80
2022-08-16T20:32:11.250Z,26.35
2022-08-16T20:34:39.088Z,25.92
2022-08-16T20:37:06.326Z,25.40
2022-08-16T20:39:33.431Z,25.67
2022-08-16T20:42:00.372Z,24.92
2022-08-16T20:44:27.312Z,24.70
2022-08-16T20:46:54.244Z,23.42
2022-08-16T20:49:21.242Z,22.48
2022-08-16T20:51:50.727Z,22.70
2022-08-16T20:54:19.838Z,21.67
2022-08-16T20:56:46.802Z,25.88
2022-08-16T20:59:14.017Z,25.08
2022-08-16T21:01:46.556Z,24.83
2022-08-16T21:04:20.190Z,25.10
2022-08-16T21:06:53.008Z,25.27
2022-08-16T21:09:32.436Z,28.73
2022-08-16T21:12:08.654Z,27.50
2022-08-16T21:14:39.015Z,28.77
2022-08-16T21:17:08.345Z,26.40
2022-08-16T21:19:36.717Z,30.52
2022-08-16T21:22:22.603Z,29.73
2022-08-16T21:24:54.146Z,32.75
2022-08-16T21:27:21.571Z,38.65
2022-08-16T21:29:52.296Z,37.77
2022-08-16T21:32:35.058Z,39.78
2022-08-16T21:35:09.384Z,42.60
2022-08-16T21:37:36.557Z,40.55
2022-08-16T21:40:05.358Z,41.08
2022-08-16T21:42:36.322Z,38.27
2022-08-16T21:45:04.463Z,40.25
2022-08-16T21:47:31.732Z,39.28
2022-08-16T21:49:58.773Z,39.15
2022-08-16T21:52:27.517Z,38.00
2022-08-16T21:54:56.847Z,38.93
2022-08-16T21:57:24.007Z,38.45
2022-08-16T21:59:55.277Z,39.08
2022-08-16T22:02:27.849Z,39.83
2022-08-16T22:05:06.126Z,43.95
2022-08-16T22:07:33.330Z,41.40
2022-08-16T22:10:00.301Z,40.28
2022-08-16T22:12:48.003Z,42.35
2022-08-16T22:15:15.717Z,43.67
2022-08-16T22:17:43.034Z,40.40
2022-08-16T22:20:11.258Z,39.53
2022-08-16T22:22:38.171Z,40.08
2022-08-16T22:25:05.768Z,38.00
2022-08-16T22:27:32.824Z,38.47
2022-08-16T22:29:59.791Z,36.38
2022-08-16T22:32:26.873Z,37.40
2022-08-16T22:34:55.578Z,37.72
2022-08-16T22:37:26.420Z,36.17
2022-08-16T22:39:53.981Z,34.67
2022-08-16T22:42:23.011Z,32.35
2022-08-16T22:44:49.992Z,35.80
2022-08-16T22:47:16.954Z,32.05
2022-08-16T22:49:45.102Z,31.58
2022-08-16T22:52:13.097Z,34.13
2022-08-16T22:55:02.829Z,31.25
2022-08-16T22:57:29.792Z,32.43
2022-08-16T22:59:56.690Z,33.28
2022-08-16T23:02:23.596Z,32.53
2022-08-16T23:04:50.518Z,33.15
2022-08-16T23:07:17.570Z,31.30
2022-08-16T23:09:44.494Z,30.63
2022-08-16T23:12:12.176Z,30.45
2022-08-16T23:14:39.168Z,30.50
2022-08-16T23:17:07.248Z,30.58
2022-08-16T23:19:34.164Z,30.23
2022-08-16T23:22:01.121Z,29.90
2022-08-16T23:24:28.081Z,31.55
2022-08-16T23:26:55.027Z,32.33
2022-08-16T23:29:26.447Z,29.90
2022-08-16T23:31:58.485Z,31.10
2022-08-16T23:34:27.983Z,31.13
2022-08-16T23:36:55.660Z,30.10
2022-08-16T23:39:23.468Z,30.25
2022-08-16T23:41:50.762Z,31.38
2022-08-16T23:44:56.186Z,29.80
2022-08-16T23:47:06.101Z,29.73
2022-08-16T23:49:59.493Z,28.33
2022-08-16T23:52:39.432Z,29.92
2022-08-16T23:55:08.549Z,30.40
2022-08-16T23:57:35.462Z,31.23
